Kuala Lumpur, Malaysia

6:33 AM MYT on September 01, 2016 (GMT +0800)
Klang | | Change Station

Elev 20 ft 3.05 °N, 101.45 °E | Updated 13 seconds ago

Mostly Cloudy
Mostly Cloudy
78.1 °F
Feels Like 81 °F
N
0.0
Wind Variable Wind from SSW
Gusts 0.0 mph

Today
High -- | Low -- °F
--% Chance of Precip.
Yesterday
High -- | Low -- °F
Precip. -- in
Pressure 29.83 in
Visibility 3.7 miles
Clouds Few 1000 ft
Mostly Cloudy 28000 ft
Heat Index 81 °F
Dew Point 75 °F
Humidity 89%
Rainfall 0.00 in
Snow Depth Not available.
7:08 AM 7:18 PM
Waning Crescent, 0% visible
METAR WMKK 312200Z VRB02KT 6000 FEW010 BKN280 25/24 Q1010 NOSIG
Pressure 29.83 in
Visibility 3.7 miles
Clouds Few 1000 ft
Mostly Cloudy 28000 ft
Heat Index 81 °F
Dew Point 75 °F
Humidity 89%
Rainfall 0.00 in
Snow Depth Not available.
7:08 AM 7:18 PM
Waning Crescent, 0% visible
METAR WMKK 312200Z VRB02KT 6000 FEW010 BKN280 25/24 Q1010 NOSIG

10-Day Weather Forecast

No radar image for this location.
×

Almanac

Astronomy

Sep. 01, 2016 Rise Set
Actual Time
Civil Twilight
Nautical Twilight
Astronomical Twilight
Moon
Length of Visible Light
Length of Day
Tomorrow will be .
, % of the Moon is Illuminated

Today's Extremes

Country Highs Country Lows

Community

WunderPhotos

Upload Photos

1,936,203 photos uploaded!

WunderBlog® & News

Nearby

Air Quality

  Air Quality AQ Index Pollutant
Not available.

Snow Depth

Station Depth Elevation

Earthquake Activity

City Distance Mag. Time & Date
Minimum magnitude displayed is 2.5.

Coastal Water Temperatures

Place Temperature

Stations

Nearby Weather Stations

Station Location Temp. Windchill Dew Point Humidity Wind Precip. Elev Updated Type